KEVW

Evanston-Uinta County Burns Field Airport

Evanston, Wyoming, USA
KEVW 161734Z 1618/1718 26011G16KT P6SM VCSH SCT070 BKN100 FM162000 34010KT P6SM SCT080 BKN120 FM170000 32007KT P6SM FEW070 SCT110 FM171200 23007KT P6SM FEW080 SCT120
Issued Valid From Valid To
Jul-16 @ 17:34 UTC
(3 hours ago)
Jul-16 @ 18:00 UTC
(2 hours ago)
Jul-17 @ 18:00 UTC
(in 22 hours)
Expired Click to View Jul-16 @ 18:00 to Jul-16 @ 20:00
KEVW 161734Z 1618/1718 26011G16KT P6SM VCSH SCT070 BKN100
Wind Visibility Clouds
260° at 11 knots
 Gusting to 16 knots
Greater than 6 miles
  • Scattered at 7,000' AGL
  • Broken at 10,000' AGL
From Jul-16 @ 20:00 to Jul-17 @ 00:00
FM162000 34010KT P6SM SCT080 BKN120
Wind Visibility Clouds
340° at 10 knots Greater than 6 miles
  • Scattered at 8,000' AGL
  • Broken at 12,000' AGL
From Jul-17 @ 00:00 to Jul-17 @ 12:00
FM170000 32007KT P6SM FEW070 SCT110
Wind Visibility Clouds
320° at 7 knots Greater than 6 miles
  • Few at 7,000' AGL
  • Scattered at 11,000' AGL
From Jul-17 @ 12:00 to Jul-17 @ 18:00
FM171200 23007KT P6SM FEW080 SCT120
Wind Visibility Clouds
230° at 7 knots Greater than 6 miles
  • Few at 8,000' AGL
  • Scattered at 12,000' AGL
KEVW 161734Z 1618/1718 26011G16KT P6SM VCSH SCT070 BKN100 FM162000 34010KT P6SM SCT080 BKN120 FM170000 32007KT P6SM FEW070 SCT110 FM171200 23007KT P6SM FEW080 SCT120
Issued Jul-16 @ 17:34 UTC
(3 hours ago)
Valid From Jul-16 @ 18:00 UTC
(2 hours ago)
Valid To Jul-17 @ 18:00 UTC
(in 22 hours)
Jul-16 @ 18:00 - Jul-16 @ 20:00
Wind Visibility
260° at 11 knots
 Gusting to 16 knots
Greater than 6 miles
Clouds
  • Scattered at 7,000' AGL
  • Broken at 10,000' AGL
From Jul-16 @ 20:00 - Jul-17 @ 00:00
Wind Visibility
340° at 10 knots Greater than 6 miles
Clouds
  • Scattered at 8,000' AGL
  • Broken at 12,000' AGL
From Jul-17 @ 00:00 - Jul-17 @ 12:00
Wind Visibility
320° at 7 knots Greater than 6 miles
Clouds
  • Few at 7,000' AGL
  • Scattered at 11,000' AGL
From Jul-17 @ 12:00 - Jul-17 @ 18:00
Wind Visibility
230° at 7 knots Greater than 6 miles
Clouds
  • Few at 8,000' AGL
  • Scattered at 12,000' AGL